Time;durP1;ratioP1;P1;durP2;ratioP2;P2;SDS_P1;SDS_P2;PMS_P1;PMS_P2;Temp;Humidity;BMP_temperature;BMP_pressure;BME280_temperature;BME280_humidity;BME280_pressure;Samples;Min_cycle;Max_cycle;Signal;HPM_P1;HPM_P2
2022/03/08 00:00:18;;;;;;;34.35;17.12;;;;;;;-2.73;100.00;146996.30;1707248;83;21183;-58
2022/03/08 00:02:46;;;;;;;34.05;17.95;;;;;;;-2.75;100.00;146992.42;1706897;84;21538;-58
2022/03/08 00:05:13;;;;;;;35.80;18.17;;;;;;;-2.74;100.00;146994.98;1706569;84;21025;-58
2022/03/08 00:07:41;;;;;;;38.98;18.15;;;;;;;-2.74;100.00;146994.98;1720656;81;21507;-58
2022/03/08 00:10:10;;;;;;;34.18;16.50;;;;;;;-2.73;100.00;146996.30;1717009;81;21000;-64
2022/03/08 00:12:37;;;;;;;31.95;16.37;;;;;;;-2.70;100.00;147002.69;1729387;82;21087;-58
2022/03/08 00:15:11;;;;;;;34.13;17.23;;;;;;;-2.71;100.00;147001.42;1722346;82;22094;-59
2022/03/08 00:17:40;;;;;;;34.88;17.12;;;;;;;-2.70;100.00;147003.98;1706546;84;21048;-58
2022/03/08 00:20:09;;;;;;;32.53;16.55;;;;;;;-2.70;100.00;147002.69;1706890;84;21108;-58
2022/03/08 00:22:36;;;;;;;35.20;17.65;;;;;;;-2.69;100.00;147006.56;1706861;84;21045;-57
2022/03/08 00:25:05;;;;;;;31.75;15.93;;;;;;;-2.69;100.00;147006.56;1706619;82;21578;-64
2022/03/08 00:27:33;;;;;;;30.15;16.12;;;;;;;-2.69;100.00;147005.25;1707143;84;21226;-63
2022/03/08 00:30:00;;;;;;;34.90;16.33;;;;;;;-2.70;100.00;147003.98;1718504;82;21118;-64
2022/03/08 00:32:28;;;;;;;33.07;17.00;;;;;;;-2.71;100.00;147001.42;1731093;81;20983;-65
2022/03/08 00:34:55;;;;;;;35.27;16.50;;;;;;;-2.72;100.00;146997.55;1730714;81;21042;-64
2022/03/08 00:37:22;;;;;;;35.53;16.73;;;;;;;-2.73;100.00;146996.30;1731434;81;20979;-64
2022/03/08 00:39:49;;;;;;;37.17;17.62;;;;;;;-2.72;100.00;146997.55;1721280;81;21124;-64
2022/03/08 00:42:16;;;;;;;30.80;15.68;;;;;;;-2.74;100.00;146993.72;1706657;84;21144;-64
2022/03/08 00:44:43;;;;;;;32.45;15.78;;;;;;;-2.75;100.00;146991.16;1706346;84;21020;-64
2022/03/08 00:47:11;;;;;;;30.08;14.78;;;;;;;-2.76;100.00;146988.59;1706829;84;21028;-64
2022/03/08 00:49:38;;;;;;;30.23;15.05;;;;;;;-2.78;100.00;146983.41;1706758;84;21028;-64
2022/03/08 00:52:07;;;;;;;28.73;13.98;;;;;;;-2.77;100.00;146985.98;1707215;84;21246;-64
2022/03/08 00:54:35;;;;;;;30.80;15.03;;;;;;;-2.77;100.00;146987.28;1707092;84;21084;-64
2022/03/08 00:57:04;;;;;;;28.50;14.05;;;;;;;-2.78;100.00;146983.41;1718937;81;20973;-64
2022/03/08 00:59:32;;;;;;;28.15;14.53;;;;;;;-2.77;100.00;146985.98;1736562;82;20942;-64
2022/03/08 01:01:59;;;;;;;29.32;13.72;;;;;;;-2.75;100.00;146991.16;1739319;81;21100;-64
2022/03/08 01:04:27;;;;;;;27.73;14.38;;;;;;;-2.75;100.00;146991.16;1743707;82;21646;-64
2022/03/08 01:06:55;;;;;;;27.15;14.33;;;;;;;-2.77;100.00;146987.28;1744799;82;21061;-64
2022/03/08 01:09:23;;;;;;;30.68;14.68;;;;;;;-2.76;100.00;146988.59;1738168;82;20988;-64
2022/03/08 01:11:50;;;;;;;28.12;15.00;;;;;;;-2.77;100.00;146987.28;1739567;81;21492;-64
2022/03/08 01:14:18;;;;;;;24.20;13.10;;;;;;;-2.74;100.00;146993.72;1720275;83;20961;-64
2022/03/08 01:16:45;;;;;;;27.83;14.10;;;;;;;-2.72;100.00;146998.86;1720643;83;21474;-63
2022/03/08 01:19:14;;;;;;;26.73;13.55;;;;;;;-2.67;100.00;147010.37;1720886;83;21000;-65
2022/03/08 01:21:41;;;;;;;26.12;13.15;;;;;;;-2.67;100.00;147010.37;1720605;82;21052;-63
2022/03/08 01:24:09;;;;;;;32.48;13.20;;;;;;;-2.65;100.00;147016.81;1720831;82;21522;-64
2022/03/08 01:26:36;;;;;;;27.35;13.20;;;;;;;-2.62;100.00;147024.52;1720708;83;20932;-64
2022/03/08 01:29:03;;;;;;;29.10;13.75;;;;;;;-2.60;100.00;147029.66;1721509;82;21217;-63
2022/03/08 01:31:32;;;;;;;28.57;13.30;;;;;;;-2.56;99.83;147037.34;1744655;82;21095;-64
2022/03/08 01:33:59;;;;;;;22.40;11.68;;;;;;;-2.56;99.58;147038.66;1744812;82;21562;-64
2022/03/08 01:36:26;;;;;;;27.98;13.78;;;;;;;-2.55;99.38;147039.91;1744811;82;21045;-64
2022/03/08 01:38:54;;;;;;;30.40;13.53;;;;;;;-2.53;99.31;147045.09;1744800;81;21443;-64
2022/03/08 01:41:21;;;;;;;24.65;12.95;;;;;;;-2.52;99.10;147048.92;1744565;81;21140;-64
2022/03/08 01:43:48;;;;;;;25.90;12.95;;;;;;;-2.50;98.93;147052.80;1743968;81;21534;-65
2022/03/08 01:46:15;;;;;;;24.20;13.00;;;;;;;-2.51;98.63;147050.22;1745278;81;21475;-64
2022/03/08 01:48:44;;;;;;;21.85;11.65;;;;;;;-2.51;98.52;147050.22;1744822;81;21012;-65
2022/03/08 01:51:13;;;;;;;26.42;13.62;;;;;;;-2.51;98.24;147050.22;1745273;81;21008;-64
2022/03/08 01:53:40;;;;;;;27.60;13.00;;;;;;;-2.51;98.21;147051.48;1745054;81;21213;-64
2022/03/08 01:56:08;;;;;;;45.08;14.75;;;;;;;-2.49;98.10;147056.62;1744927;82;21442;-64
2022/03/08 01:58:37;;;;;;;28.27;13.95;;;;;;;-2.48;97.96;147057.94;1744665;81;21470;-63
2022/03/08 02:01:06;;;;;;;25.80;13.40;;;;;;;-2.49;97.75;147055.36;1744867;82;21531;-63
2022/03/08 02:03:34;;;;;;;24.00;13.60;;;;;;;-2.49;97.56;147055.36;1744929;81;21093;-65
2022/03/08 02:06:04;;;;;;;26.55;13.38;;;;;;;-2.51;97.46;147050.22;1744881;81;21164;-65
2022/03/08 02:08:32;;;;;;;25.80;13.50;;;;;;;-2.50;97.39;147052.80;1745010;82;21081;-63
2022/03/08 02:10:59;;;;;;;20.70;11.38;;;;;;;-2.47;97.34;147060.50;1755960;81;21032;-64
2022/03/08 02:13:28;;;;;;;25.70;13.57;;;;;;;-2.46;96.84;147064.31;1744627;81;21016;-64
2022/03/08 02:15:56;;;;;;;26.02;12.18;;;;;;;-2.45;96.88;147065.63;1744602;82;21096;-65
2022/03/08 02:18:23;;;;;;;21.23;11.70;;;;;;;-2.42;96.78;147073.31;1744880;81;21105;-64
2022/03/08 02:20:50;;;;;;;23.45;12.58;;;;;;;-2.41;96.56;147074.63;1744437;81;21069;-64
2022/03/08 02:23:18;;;;;;;23.62;12.90;;;;;;;-2.38;96.46;147083.59;1745027;82;21116;-64
2022/03/08 02:25:45;;;;;;;24.57;13.50;;;;;;;-2.39;96.17;147081.03;1744618;82;21315;-64
2022/03/08 02:28:12;;;;;;;25.92;13.28;;;;;;;-2.37;96.16;147086.16;1734041;81;21058;-64
2022/03/08 02:30:40;;;;;;;22.73;12.00;;;;;;;-2.37;95.88;147086.16;1725575;82;21267;-64
2022/03/08 02:33:08;;;;;;;26.00;12.98;;;;;;;-2.36;95.90;147088.72;1729419;82;21123;-64
2022/03/08 02:35:35;;;;;;;23.77;12.65;;;;;;;-2.35;95.82;147091.28;1729745;82;21107;-64
2022/03/08 02:38:04;;;;;;;29.10;13.03;;;;;;;-2.34;95.75;147093.86;1730583;82;21036;-64
2022/03/08 02:40:39;;;;;;;23.52;12.70;;;;;;;-2.32;95.47;147097.73;1722680;82;21528;-63
2022/03/08 02:43:08;;;;;;;24.85;13.68;;;;;;;-2.34;95.49;147093.86;1717082;83;21118;-64
2022/03/08 02:45:35;;;;;;;27.80;14.15;;;;;;;-2.33;95.46;147096.42;1716798;83;20988;-64
2022/03/08 02:48:03;;;;;;;28.10;13.25;;;;;;;-2.34;95.39;147093.86;1717281;82;21091;-64
2022/03/08 02:50:30;;;;;;;26.62;13.45;;;;;;;-2.34;95.41;147093.86;1717526;83;20905;-64
2022/03/08 02:52:57;;;;;;;24.32;13.45;;;;;;;-2.33;95.41;147096.42;1717023;83;21358;-66
2022/03/08 02:55:27;;;;;;;31.40;14.93;;;;;;;-2.32;95.46;147099.03;1717307;82;21351;-63
2022/03/08 02:57:54;;;;;;;26.97;13.65;;;;;;;-2.32;95.47;147099.03;1716876;82;21561;-64
2022/03/08 03:00:23;;;;;;;26.90;14.10;;;;;;;-2.31;95.49;147101.59;1717957;83;21339;-64
2022/03/08 03:02:50;;;;;;;26.87;14.00;;;;;;;-2.31;95.42;147101.59;1714086;82;21079;-63
2022/03/08 03:05:19;;;;;;;33.23;14.98;;;;;;;-2.29;95.43;147104.17;1766789;81;21524;-64
2022/03/08 03:07:47;;;;;;;27.60;13.43;;;;;;;-2.31;95.42;147101.59;1766807;79;21938;-64
2022/03/08 03:10:18;;;;;;;23.00;12.10;;;;;;;-2.31;95.46;147101.59;1787755;79;21060;-65
2022/03/08 03:12:45;;;;;;;24.40;13.05;;;;;;;-2.30;95.31;147102.86;1781786;78;21557;-64
2022/03/08 03:15:15;;;;;;;24.57;13.30;;;;;;;-2.33;95.22;147096.42;1782255;79;20986;-64
2022/03/08 03:17:43;;;;;;;27.65;14.13;;;;;;;-2.36;95.12;147088.72;1782303;78;21075;-64
2022/03/08 03:20:12;;;;;;;26.75;14.18;;;;;;;-2.38;95.13;147083.59;1782317;79;21806;-64
2022/03/08 03:22:40;;;;;;;26.05;13.68;;;;;;;-2.42;95.09;147073.31;1782275;79;20917;-64
2022/03/08 03:25:08;;;;;;;26.20;13.47;;;;;;;-2.45;95.19;147065.63;1782202;80;21079;-64
2022/03/08 03:27:35;;;;;;;25.27;14.10;;;;;;;-2.48;95.24;147059.19;1782131;80;21107;-65
2022/03/08 03:30:09;;;;;;;28.62;14.70;;;;;;;-2.51;95.40;147051.48;1782188;80;21107;-64
2022/03/08 03:32:37;;;;;;;27.37;13.38;;;;;;;-2.51;95.58;147051.48;1782286;79;21770;-63
2022/03/08 03:35:05;;;;;;;29.47;15.20;;;;;;;-2.48;95.70;147057.94;1781753;79;21850;-65
2022/03/08 03:37:33;;;;;;;25.85;13.10;;;;;;;-2.47;95.70;147061.75;1781745;79;21115;-59
2022/03/08 03:40:00;;;;;;;29.30;14.68;;;;;;;-2.46;95.78;147063.06;1781621;80;21004;-64
2022/03/08 03:42:27;;;;;;;28.32;14.70;;;;;;;-2.44;95.75;147068.19;1781622;78;21009;-64
2022/03/08 03:44:54;;;;;;;28.10;14.60;;;;;;;-2.45;95.77;147066.88;1781003;79;21186;-63
2022/03/08 03:47:21;;;;;;;26.37;13.98;;;;;;;-2.43;95.81;147070.75;1781436;79;21600;-64
2022/03/08 03:49:49;;;;;;;24.35;13.45;;;;;;;-2.41;95.88;147075.89;1782179;78;21529;-64
2022/03/08 03:52:16;;;;;;;30.82;15.95;;;;;;;-2.41;95.86;147075.89;1782710;79;21521;-64
2022/03/08 03:54:44;;;;;;;27.87;14.23;;;;;;;-2.40;95.93;147078.45;1781912;80;21068;-64
2022/03/08 03:57:11;;;;;;;29.60;15.65;;;;;;;-2.37;96.00;147086.16;1782682;80;21192;-58
2022/03/08 03:59:39;;;;;;;29.60;15.18;;;;;;;-2.37;95.88;147086.16;1773469;78;21024;-58
2022/03/08 04:02:06;;;;;;;28.62;15.75;;;;;;;-2.36;95.97;147088.72;1758681;79;21033;-58
2022/03/08 04:04:35;;;;;;;29.77;16.15;;;;;;;-2.32;95.99;147099.03;1742158;79;21006;-58
2022/03/08 04:07:03;;;;;;;28.38;14.58;;;;;;;-2.29;96.01;147105.44;1758542;81;21105;-58
2022/03/08 04:09:30;;;;;;;26.75;13.88;;;;;;;-2.28;95.78;147108.00;1743816;79;21194;-57
2022/03/08 04:11:58;;;;;;;29.10;15.25;;;;;;;-2.29;95.73;147104.17;1763861;79;21017;-59
2022/03/08 04:14:25;;;;;;;27.67;15.03;;;;;;;-2.32;95.73;147099.03;1770999;79;20998;-64
2022/03/08 04:16:54;;;;;;;25.02;14.63;;;;;;;-2.35;95.71;147091.28;1770646;81;21054;-64
2022/03/08 04:19:21;;;;;;;30.80;15.03;;;;;;;-2.34;95.80;147093.86;1771371;81;20957;-62
2022/03/08 04:21:49;;;;;;;28.70;15.23;;;;;;;-2.34;95.83;147093.86;1770810;81;21123;-64
2022/03/08 04:24:16;;;;;;;29.37;14.43;;;;;;;-2.33;95.84;147096.42;1770958;79;20999;-64
2022/03/08 04:26:43;;;;;;;28.27;14.15;;;;;;;-2.33;95.81;147096.42;1770707;81;21033;-65
2022/03/08 04:29:10;;;;;;;28.32;15.80;;;;;;;-2.32;95.85;147099.03;1771234;81;21399;-64
2022/03/08 04:31:39;;;;;;;33.02;14.20;;;;;;;-2.32;95.87;147099.03;1770979;79;20934;-63
2022/03/08 04:34:06;;;;;;;29.87;14.93;;;;;;;-2.30;95.94;147102.86;1771261;81;21241;-63
2022/03/08 04:36:33;;;;;;;29.63;16.17;;;;;;;-2.31;95.87;147100.30;1770989;81;21015;-63
2022/03/08 04:39:00;;;;;;;29.32;15.72;;;;;;;-2.32;95.97;147099.03;1771155;79;21490;-64
2022/03/08 04:41:29;;;;;;;33.23;16.75;;;;;;;-2.29;96.06;147105.44;1770809;79;21053;-58
2022/03/08 04:43:57;;;;;;;28.85;16.07;;;;;;;-2.26;96.18;147111.87;1770533;81;21044;-57
2022/03/08 04:46:24;;;;;;;33.28;16.37;;;;;;;-2.21;96.13;147124.70;1771112;79;21238;-59
2022/03/08 04:48:51;;;;;;;28.07;14.98;;;;;;;-2.22;95.91;147122.14;1770937;81;20945;-59
2022/03/08 04:51:19;;;;;;;28.83;14.33;;;;;;;-2.21;95.88;147124.70;1771275;79;20949;-64
2022/03/08 04:53:46;;;;;;;27.62;15.58;;;;;;;-2.22;95.87;147122.14;1770552;79;21017;-64
2022/03/08 04:56:14;;;;;;;33.45;16.05;;;;;;;-2.24;95.85;147118.27;1771163;79;21010;-64
2022/03/08 04:58:42;;;;;;;30.80;15.93;;;;;;;-2.25;95.90;147114.44;1771075;81;21256;-64
2022/03/08 05:01:09;;;;;;;32.90;16.85;;;;;;;-2.26;95.96;147111.87;1771213;79;21017;-64
2022/03/08 05:03:37;;;;;;;31.33;15.32;;;;;;;-2.25;96.07;147114.44;1780148;80;21488;-65
2022/03/08 05:06:06;;;;;;;31.02;15.95;;;;;;;-2.25;96.12;147115.70;1787091;79;21012;-58
2022/03/08 05:08:33;;;;;;;32.70;17.30;;;;;;;-2.23;96.19;147119.56;1787180;80;21075;-59
2022/03/08 05:11:01;;;;;;;33.05;17.07;;;;;;;-2.21;96.18;147124.70;1787191;79;21259;-63
2022/03/08 05:13:30;;;;;;;32.42;16.65;;;;;;;-2.20;96.16;147127.28;1787008;79;20968;-64
2022/03/08 05:15:59;;;;;;;29.55;14.28;;;;;;;-2.19;96.14;147131.16;1787018;79;21450;-64
2022/03/08 05:18:26;;;;;;;35.15;16.50;;;;;;;-2.17;96.23;147136.28;1787216;78;21041;-64
2022/03/08 05:20:53;;;;;;;30.27;16.50;;;;;;;-2.11;96.23;147150.37;1787488;80;21028;-65
2022/03/08 05:23:21;;;;;;;35.00;16.87;;;;;;;-2.07;96.17;147160.69;1787750;78;21218;-59
2022/03/08 05:25:48;;;;;;;31.68;16.87;;;;;;;-2.02;96.09;147172.22;1786768;80;21107;-65
2022/03/08 05:28:16;;;;;;;31.12;16.95;;;;;;;-1.95;96.16;147188.94;1787666;80;21461;-65
2022/03/08 05:30:45;;;;;;;34.78;16.62;;;;;;;-1.87;96.03;147209.53;1786946;80;21057;-65
2022/03/08 05:33:12;;;;;;;28.47;16.12;;;;;;;-1.77;95.97;147235.20;1787598;80;21058;-63
2022/03/08 05:35:40;;;;;;;30.35;15.88;;;;;;;-1.68;95.85;147257.06;1787235;80;21452;-65
2022/03/08 05:38:07;;;;;;;34.67;18.07;;;;;;;-1.57;95.71;147282.73;1786836;80;21121;-64
2022/03/08 05:40:36;;;;;;;30.00;16.23;;;;;;;-1.43;95.68;147318.75;1786946;80;20929;-63
2022/03/08 05:43:03;;;;;;;32.78;17.12;;;;;;;-1.30;95.29;147350.88;1787314;80;20984;-58
2022/03/08 05:45:31;;;;;;;31.02;15.60;;;;;;;-1.22;94.73;147371.42;1786711;78;21493;-64
2022/03/08 05:47:59;;;;;;;33.02;16.85;;;;;;;-1.18;94.34;147381.75;1786933;80;21858;-65
2022/03/08 05:50:26;;;;;;;34.33;16.32;;;;;;;-1.11;94.24;147398.44;1787286;80;21540;-65
2022/03/08 05:52:55;;;;;;;28.40;14.93;;;;;;;-1.01;94.18;147422.86;1786959;78;21045;-65
2022/03/08 05:55:22;;;;;;;27.75;15.58;;;;;;;-0.93;93.35;147443.47;1787192;80;21107;-64
2022/03/08 05:57:49;;;;;;;31.27;15.72;;;;;;;-0.92;92.61;147446.03;1786824;80;20952;-64
2022/03/08 06:00:17;;;;;;;27.65;15.90;;;;;;;-0.96;91.92;147434.44;1787424;79;21752;-65
2022/03/08 06:02:44;;;;;;;30.68;15.20;;;;;;;-1.02;92.04;147421.59;1785151;78;21063;-58
2022/03/08 06:05:11;;;;;;;31.60;17.02;;;;;;;-1.03;92.12;147417.72;1770409;81;21025;-58
2022/03/08 06:07:38;;;;;;;30.72;15.45;;;;;;;-1.00;92.50;147425.44;1770433;79;21057;-59
2022/03/08 06:10:08;;;;;;;27.55;15.28;;;;;;;-0.91;92.70;147448.59;1770558;81;21057;-64
2022/03/08 06:12:36;;;;;;;29.48;16.10;;;;;;;-0.79;92.71;147478.19;1770383;81;21455;-65
2022/03/08 06:15:05;;;;;;;31.23;16.10;;;;;;;-0.67;92.53;147507.77;1770152;79;21045;-65
2022/03/08 06:17:32;;;;;;;32.70;16.97;;;;;;;-0.55;92.23;147536.03;1771248;81;21112;-58
2022/03/08 06:20:00;;;;;;;27.93;15.05;;;;;;;-0.38;92.49;147579.78;1770509;81;21271;-57
2022/03/08 06:22:27;;;;;;;31.55;15.95;;;;;;;-0.17;92.43;147632.56;1770900;79;21072;-58
2022/03/08 06:24:55;;;;;;;26.52;13.45;;;;;;;-0.03;91.39;147667.31;1770811;79;21208;-59
2022/03/08 06:27:22;;;;;;;29.85;16.35;;;;;;;0.03;89.97;147680.17;1770965;79;20966;-58
2022/03/08 06:29:51;;;;;;;28.87;15.30;;;;;;;0.02;89.75;147677.59;1768599;81;21117;-64
2022/03/08 06:32:19;;;;;;;32.05;15.55;;;;;;;0.07;89.64;147690.45;1732917;82;21049;-58
2022/03/08 06:34:46;;;;;;;30.25;15.68;;;;;;;0.21;89.67;147726.50;1699680;84;21017;-64
2022/03/08 06:37:13;;;;;;;26.48;14.93;;;;;;;0.34;89.39;147758.69;1706242;84;21567;-64
2022/03/08 06:39:40;;;;;;;24.18;13.15;;;;;;;0.48;88.80;147793.44;1732863;81;21424;-64
2022/03/08 06:42:08;;;;;;;26.77;15.18;;;;;;;0.62;87.98;147826.94;1736443;82;21004;-58
2022/03/08 06:44:38;;;;;;;22.98;13.20;;;;;;;0.71;87.67;147850.09;1736145;82;21010;-58
2022/03/08 06:47:06;;;;;;;28.38;14.00;;;;;;;0.75;87.16;147860.39;1703101;83;21087;-58
2022/03/08 06:49:34;;;;;;;25.72;14.83;;;;;;;0.75;86.19;147859.12;1736329;82;20937;-64
2022/03/08 06:52:02;;;;;;;24.67;13.00;;;;;;;0.82;86.63;147878.45;1736625;82;21600;-64
2022/03/08 06:54:30;;;;;;;27.17;13.15;;;;;;;0.94;86.57;147906.77;1736359;82;20985;-63
2022/03/08 06:56:57;;;;;;;19.20;11.73;;;;;;;1.05;86.42;147933.81;1736248;82;21028;-58
2022/03/08 06:59:25;;;;;;;23.35;12.78;;;;;;;1.22;86.48;147976.36;1736526;82;20969;-58
2022/03/08 07:01:52;;;;;;;23.00;12.65;;;;;;;1.32;84.61;148002.09;1736241;82;21846;-64
2022/03/08 07:04:20;;;;;;;22.95;12.50;;;;;;;1.27;82.89;147989.23;1743002;81;21053;-64
2022/03/08 07:06:47;;;;;;;23.20;11.35;;;;;;;1.23;83.53;147978.94;1746555;82;21054;-64
2022/03/08 07:09:14;;;;;;;23.75;12.43;;;;;;;1.33;84.40;148004.67;1746699;82;21166;-64
2022/03/08 07:11:41;;;;;;;21.82;12.18;;;;;;;1.51;84.31;148048.50;1751789;81;21056;-64
2022/03/08 07:14:08;;;;;;;21.97;11.90;;;;;;;1.60;83.29;148071.66;1746672;82;21542;-58
2022/03/08 07:16:36;;;;;;;22.70;12.60;;;;;;;1.64;82.51;148081.97;1715023;82;21130;-59
2022/03/08 07:21:37;;;;;;;26.00;12.50;;;;;;;1.79;82.18;148119.39;1819871;78;22703;-58
2022/03/08 07:24:06;;;;;;;22.10;12.85;;;;;;;1.86;81.84;148136.09;1781795;80;21297;-59
2022/03/08 07:26:33;;;;;;;22.70;12.28;;;;;;;1.90;81.56;148146.45;1781659;79;21182;-58
2022/03/08 07:29:01;;;;;;;21.10;11.95;;;;;;;1.94;79.99;148155.44;1781537;80;21012;-58
2022/03/08 07:31:30;;;;;;;19.48;12.50;;;;;;;1.94;80.45;148155.44;1776025;80;21429;-57
2022/03/08 07:33:59;;;;;;;21.93;12.00;;;;;;;1.99;79.73;148169.64;1776761;80;20959;-59
2022/03/08 07:36:28;;;;;;;19.50;11.35;;;;;;;2.00;79.20;148170.94;1776498;79;21567;-59
2022/03/08 07:38:56;;;;;;;22.07;12.33;;;;;;;1.94;79.01;148156.75;1776798;80;21202;-58
2022/03/08 07:41:24;;;;;;;19.17;11.28;;;;;;;1.90;78.55;148146.45;1781361;78;20878;-59
2022/03/08 07:43:53;;;;;;;19.40;10.55;;;;;;;1.86;78.64;148136.09;1782024;79;21000;-57
2022/03/08 07:46:21;;;;;;;22.25;11.75;;;;;;;1.90;78.69;148146.45;1761062;80;20953;-58
2022/03/08 07:48:49;;;;;;;20.68;11.10;;;;;;;1.91;78.12;148147.72;1782250;79;21036;-58
2022/03/08 07:51:18;;;;;;;22.55;10.65;;;;;;;1.89;77.77;148143.88;1782066;80;21131;-58
2022/03/08 07:53:47;;;;;;;18.87;10.13;;;;;;;1.92;77.97;148150.30;1782432;79;21514;-59
2022/03/08 07:56:16;;;;;;;21.42;10.68;;;;;;;2.00;78.27;148172.22;1782785;80;21016;-60
2022/03/08 07:58:46;;;;;;;19.20;10.08;;;;;;;2.07;78.30;148187.67;1782319;80;20996;-59
2022/03/08 08:01:16;;;;;;;18.73;10.93;;;;;;;2.12;77.30;148201.86;1782336;79;21410;-58
2022/03/08 08:03:45;;;;;;;17.62;9.75;;;;;;;2.17;76.79;148213.47;1782334;80;22172;-58
2022/03/08 08:06:13;;;;;;;16.62;9.83;;;;;;;2.27;76.89;148239.25;1781983;79;21111;-58
2022/03/08 08:08:46;;;;;;;17.73;10.50;;;;;;;2.45;75.83;148283.09;1782637;79;21545;-58
2022/03/08 08:11:12;;;;;;;15.23;8.83;;;;;;;2.60;74.52;148320.48;1796548;78;21056;-65
2022/03/08 08:13:42;;;;;;;15.45;8.63;;;;;;;2.70;73.23;148345.00;1786211;78;21035;-64
2022/03/08 08:16:12;;;;;;;16.32;8.85;;;;;;;2.80;72.97;148369.50;1763074;80;21691;-64
2022/03/08 08:18:41;;;;;;;13.90;7.87;;;;;;;2.88;72.65;148388.86;1774203;78;21046;-64
2022/03/08 08:21:09;;;;;;;13.25;8.40;;;;;;;2.92;71.28;148399.17;1755484;81;21059;-64
2022/03/08 08:23:38;;;;;;;13.13;7.83;;;;;;;2.85;71.07;148383.70;1795426;77;21082;-64
2022/03/08 08:26:06;;;;;;;15.93;8.78;;;;;;;2.85;71.80;148383.70;1811632;79;21532;-65
2022/03/08 08:28:35;;;;;;;13.20;7.80;;;;;;;2.93;72.07;148401.75;1811303;78;21168;-65
2022/03/08 08:31:04;;;;;;;14.87;8.03;;;;;;;2.99;70.92;148417.27;1770630;79;21106;-63
2022/03/08 08:33:32;;;;;;;12.98;7.45;;;;;;;3.01;70.97;148422.42;1765984;81;21070;-65
2022/03/08 08:36:01;;;;;;;13.00;7.45;;;;;;;3.07;70.77;148437.89;1766130;81;21065;-65
2022/03/08 08:38:29;;;;;;;14.63;8.60;;;;;;;3.12;69.31;148449.52;1766709;81;20988;-64
2022/03/08 08:40:59;;;;;;;15.72;8.85;;;;;;;3.14;69.18;148455.94;1768846;81;21143;-66
2022/03/08 08:43:27;;;;;;;13.40;8.25;;;;;;;3.26;70.26;148484.34;1770647;81;20978;-64
2022/03/08 08:45:56;;;;;;;12.50;7.80;;;;;;;3.50;70.21;148544.97;1770596;81;21033;-64
2022/03/08 08:48:24;;;;;;;14.07;8.68;;;;;;;3.65;67.56;148582.45;1771041;81;20987;-64
2022/03/08 08:50:53;;;;;;;17.52;8.30;;;;;;;3.66;67.73;148585.03;1770856;81;20973;-65
2022/03/08 08:53:22;;;;;;;13.95;6.80;;;;;;;3.69;68.34;148591.45;1771246;81;21221;-64
2022/03/08 08:55:50;;;;;;;14.25;7.92;;;;;;;3.77;66.80;148610.81;1770871;81;21041;-65
2022/03/08 08:58:17;;;;;;;12.20;7.90;;;;;;;3.69;66.81;148592.77;1771289;81;20961;-65
2022/03/08 09:00:44;;;;;;;13.88;7.90;;;;;;;3.69;67.01;148591.45;1770676;79;21004;-65
2022/03/08 09:03:14;;;;;;;11.80;6.67;;;;;;;3.67;67.41;148587.61;1770957;81;21065;-64
2022/03/08 09:05:45;;;;;;;11.83;7.42;;;;;;;3.73;66.41;148603.09;1770835;79;21029;-64
2022/03/08 09:08:23;;;;;;;13.88;7.40;;;;;;;3.69;65.67;148592.77;1771208;79;21506;-64
2022/03/08 09:10:42;;;;;;;15.75;7.67;;;;;;;3.61;66.20;148572.09;1770067;80;21095;-58
2022/03/08 09:13:09;;;;;;;12.07;7.65;;;;;;;3.65;67.04;148582.45;1770912;81;21339;-64
2022/03/08 09:15:36;;;;;;;12.07;7.05;;;;;;;4.00;67.38;148668.94;1771006;79;21013;-64
2022/03/08 09:18:05;;;;;;;14.68;7.83;;;;;;;4.17;66.68;148711.53;1770910;79;21557;-64
2022/03/08 09:20:32;;;;;;;12.93;7.37;;;;;;;4.17;66.68;148711.53;1775606;80;21550;-65
2022/03/08 09:23:01;;;;;;;16.30;7.97;;;;;;;4.23;66.18;148727.03;1787118;79;21052;-65
2022/03/08 09:25:29;;;;;;;15.30;7.85;;;;;;;4.16;65.84;148710.22;1787522;80;20997;-64
2022/03/08 09:27:58;;;;;;;14.43;7.25;;;;;;;4.12;66.16;148699.91;1787483;78;21004;-64
2022/03/08 09:30:25;;;;;;;12.15;7.28;;;;;;;4.14;66.16;148705.06;1786735;80;21329;-64
2022/03/08 09:32:53;;;;;;;10.03;5.95;;;;;;;4.24;66.12;148729.61;1785452;80;21034;-65
2022/03/08 09:35:20;;;;;;;12.20;6.60;;;;;;;4.33;64.98;148750.30;1785709;80;21009;-64
2022/03/08 09:37:47;;;;;;;13.83;8.03;;;;;;;4.18;64.01;148712.81;1785459;80;20974;-64
2022/03/08 09:40:14;;;;;;;14.93;8.55;;;;;;;3.94;64.72;148653.41;1786118;80;21492;-65
2022/03/08 09:42:41;;;;;;;14.70;9.00;;;;;;;3.84;65.73;148628.88;1785831;80;21573;-65
2022/03/08 09:45:08;;;;;;;15.98;9.00;;;;;;;3.91;66.65;148646.98;1785478;80;21018;-65
2022/03/08 09:47:38;;;;;;;14.50;9.28;;;;;;;4.00;66.63;148670.20;1786047;80;20958;-64
2022/03/08 09:50:08;;;;;;;13.53;8.48;;;;;;;4.40;67.01;148768.38;1786252;80;21041;-65
2022/03/08 09:52:37;;;;;;;12.35;7.40;;;;;;;4.40;67.01;148768.38;1785981;80;21361;-64
2022/03/08 09:55:07;;;;;;;11.75;7.28;;;;;;;4.67;66.45;148835.53;1785215;80;21141;-64
2022/03/08 09:57:34;;;;;;;11.35;6.25;;;;;;;4.88;65.66;148888.53;1786285;80;21476;-64
2022/03/08 10:00:01;;;;;;;10.15;6.12;;;;;;;5.15;62.31;148956.97;1785370;80;21521;-64
2022/03/08 10:02:50;;;;;;;7.78;4.15;;;;;;;5.21;62.16;148969.94;1785672;80;20942;-64
2022/03/08 10:05:27;;;;;;;9.15;4.80;;;;;;;5.21;62.16;148969.94;1785275;80;21582;-64
2022/03/08 10:08:19;;;;;;;8.25;5.15;;;;;;;5.33;61.30;149000.92;1757036;80;21222;-64
2022/03/08 10:10:58;;;;;;;8.35;5.40;;;;;;;5.52;59.70;149047.47;1799729;78;21062;-64
2022/03/08 10:13:26;;;;;;;10.50;5.65;;;;;;;5.52;59.70;149047.47;1780711;80;21020;-65
2022/03/08 10:16:25;;;;;;;7.22;5.40;;;;;;;5.47;59.45;149035.81;1780941;80;21071;-65
2022/03/08 10:18:52;;;;;;;7.90;5.22;;;;;;;5.50;57.85;149042.31;1786529;78;22274;-64
2022/03/08 10:21:37;;;;;;;9.00;5.37;;;;;;;5.36;57.55;149008.67;1779980;79;21755;-65
2022/03/08 10:24:24;;;;;;;11.03;6.45;;;;;;;5.32;58.28;148997.08;1770737;81;21069;-64
2022/03/08 10:27:01;;;;;;;10.65;6.75;;;;;;;5.32;58.14;148997.08;1770597;80;21080;-65
2022/03/08 10:29:35;;;;;;;14.23;6.35;;;;;;;5.04;56.79;148928.56;1769944;79;21495;-64
2022/03/08 10:32:16;;;;;;;11.38;7.20;;;;;;;4.39;59.45;148767.05;1766919;81;21082;-64
2022/03/08 10:34:45;;;;;;;14.63;8.58;;;;;;;4.39;59.45;148767.05;1766002;81;21114;-64
2022/03/08 10:37:17;;;;;;;13.83;8.45;;;;;;;4.07;63.05;148685.69;1766273;81;21039;-65
2022/03/08 10:39:51;;;;;;;12.82;8.18;;;;;;;3.79;65.83;148615.98;1766455;81;21042;-64
2022/03/08 10:42:24;;;;;;;14.05;8.38;;;;;;;3.29;71.79;148492.09;1766651;81;21113;-66
2022/03/08 10:44:53;;;;;;;14.83;8.10;;;;;;;3.29;71.79;148492.09;1766496;81;20998;-65
2022/03/08 10:47:20;;;;;;;11.70;7.55;;;;;;;2.96;74.29;148409.48;1767134;81;21258;-64
2022/03/08 10:49:55;;;;;;;12.03;7.67;;;;;;;2.58;76.35;148316.64;1766412;81;20999;-65
2022/03/08 10:52:40;;;;;;;12.23;7.45;;;;;;;2.34;78.15;148254.75;1767006;81;21034;-65
2022/03/08 10:55:18;;;;;;;10.45;6.95;;;;;;;2.20;79.87;148219.89;1766560;81;21425;-65
2022/03/08 10:57:53;;;;;;;13.18;7.40;;;;;;;2.11;81.20;148198.02;1767154;81;20962;-65
2022/03/08 11:00:23;;;;;;;15.48;8.23;;;;;;;2.06;82.40;148185.09;1767491;81;21779;-65
2022/03/08 11:03:03;;;;;;;16.42;8.48;;;;;;;2.08;83.26;148190.25;1766772;80;21100;-66
2022/03/08 11:05:34;;;;;;;13.62;7.90;;;;;;;2.20;84.13;148219.89;1766162;81;21452;-64
2022/03/08 11:08:03;;;;;;;12.85;7.33;;;;;;;2.33;85.04;148252.17;1767072;81;21431;-65
2022/03/08 11:10:31;;;;;;;10.32;5.70;;;;;;;2.48;85.57;148290.83;1785855;79;21028;-65
2022/03/08 11:12:58;;;;;;;8.98;5.92;;;;;;;2.57;84.60;148314.06;1770660;79;21902;-57
2022/03/08 11:15:31;;;;;;;9.13;5.95;;;;;;;2.67;83.98;148338.58;1770801;79;21479;-59
2022/03/08 11:18:00;;;;;;;15.10;8.00;;;;;;;2.71;82.49;148347.56;1770785;79;21072;-58
2022/03/08 11:20:29;;;;;;;13.38;6.97;;;;;;;2.69;82.03;148343.73;1771128;79;21012;-64
2022/03/08 11:22:58;;;;;;;15.72;8.18;;;;;;;2.74;83.05;148355.31;1786869;79;20976;-66